createdAt,value
2019-05-05T00:01:16.207Z,100543.23
2019-05-05T00:03:51.187Z,100549.03
2019-05-05T00:06:21.667Z,100547.75
2019-05-05T00:08:52.094Z,100556.13
2019-05-05T00:11:31.183Z,100554.90
2019-05-05T00:14:06.121Z,100549.97
2019-05-05T00:16:38.186Z,100559.31
2019-05-05T00:19:08.603Z,100557.88
2019-05-05T00:21:39.091Z,100564.88
2019-05-05T00:24:09.528Z,100570.55
2019-05-05T00:26:40.012Z,100574.11
2019-05-05T00:29:10.427Z,100578.94
2019-05-05T00:31:40.900Z,100576.25
2019-05-05T00:34:11.339Z,100572.46
2019-05-05T00:36:41.846Z,100572.39
2019-05-05T00:39:12.289Z,100569.66
2019-05-05T00:41:44.825Z,100570.91
2019-05-05T00:44:15.476Z,100573.00
2019-05-05T00:46:56.497Z,100568.11
2019-05-05T00:49:28.462Z,100564.13
2019-05-05T00:51:59.544Z,100573.78
2019-05-05T00:54:30.116Z,100576.67
2019-05-05T00:57:00.685Z,100580.66
2019-05-05T00:59:31.402Z,100574.14
2019-05-05T01:02:04.611Z,100567.06
2019-05-05T01:04:55.162Z,100568.95
2019-05-05T01:07:25.613Z,100567.23
2019-05-05T01:09:56.040Z,100565.31
2019-05-05T01:12:28.053Z,100564.14
2019-05-05T01:14:58.469Z,100562.78
2019-05-05T01:17:28.952Z,100559.34
2019-05-05T01:20:04.077Z,100563.13
2019-05-05T01:22:31.552Z,100567.04
2019-05-05T01:25:01.922Z,100561.81
2019-05-05T01:27:34.612Z,100562.82
2019-05-05T01:30:07.674Z,100573.19
2019-05-05T01:32:44.502Z,100580.59
2019-05-05T01:35:14.690Z,100584.41
2019-05-05T01:37:49.518Z,100582.86
2019-05-05T01:40:24.805Z,100583.95
2019-05-05T01:42:55.371Z,100586.17
2019-05-05T01:45:25.829Z,100594.95
2019-05-05T01:47:56.321Z,100591.33
2019-05-05T01:50:26.791Z,100598.20
2019-05-05T01:52:57.311Z,100593.20
2019-05-05T01:55:27.908Z,100596.95
2019-05-05T01:57:58.584Z,100591.59
2019-05-05T02:00:29.031Z,100591.16
2019-05-05T02:02:59.770Z,100595.70
2019-05-05T02:05:30.253Z,100596.20
2019-05-05T02:08:00.746Z,100590.33
2019-05-05T02:10:31.222Z,100594.79
2019-05-05T02:13:04.626Z,100593.22
2019-05-05T02:15:34.861Z,100592.56
2019-05-05T02:18:05.540Z,100600.53
2019-05-05T02:21:05.664Z,100599.48
2019-05-05T02:23:37.933Z,100603.91
2019-05-05T02:26:09.390Z,100600.86
2019-05-05T02:28:41.561Z,100606.41
2019-05-05T02:31:16.860Z,100608.94
2019-05-05T02:33:47.499Z,100614.14
2019-05-05T02:36:17.949Z,100616.19
2019-05-05T02:38:48.468Z,100616.54
2019-05-05T02:41:20.141Z,100617.24
2019-05-05T02:43:51.252Z,100620.95
2019-05-05T02:46:25.394Z,100627.37
2019-05-05T02:48:58.131Z,100626.17
2019-05-05T02:51:29.746Z,100627.23
2019-05-05T02:54:04.401Z,100627.15
2019-05-05T02:56:39.203Z,100630.73
2019-05-05T02:59:11.783Z,100623.05
2019-05-05T03:01:46.488Z,100629.06
2019-05-05T03:04:17.271Z,100635.08
2019-05-05T03:06:50.641Z,100637.25
2019-05-05T03:09:24.340Z,100640.78
2019-05-05T03:11:57.209Z,100642.83
2019-05-05T03:14:30.221Z,100641.77
2019-05-05T03:17:04.329Z,100632.67
2019-05-05T03:19:34.860Z,100637.93
2019-05-05T03:22:05.529Z,100642.11
2019-05-05T03:24:36.005Z,100647.05
2019-05-05T03:27:06.416Z,100651.80
2019-05-05T03:29:36.916Z,100656.70
2019-05-05T03:32:11.519Z,100663.53
2019-05-05T03:34:40.172Z,100663.38
2019-05-05T03:37:10.758Z,100663.88
2019-05-05T03:39:44.479Z,100663.46
2019-05-05T03:42:16.661Z,100667.80
2019-05-05T03:44:54.409Z,100675.58
2019-05-05T03:47:24.879Z,100674.01
2019-05-05T03:49:56.154Z,100682.61
2019-05-05T03:52:26.776Z,100683.70
2019-05-05T03:54:57.177Z,100686.58
2019-05-05T03:57:27.610Z,100686.62
2019-05-05T03:59:58.438Z,100686.77
2019-05-05T04:02:30.444Z,100693.02
2019-05-05T04:05:05.218Z,100694.70
2019-05-05T04:07:35.741Z,100688.14
2019-05-05T04:10:07.285Z,100695.09
2019-05-05T04:12:38.124Z,100701.47
2019-05-05T04:15:09.516Z,100704.11
2019-05-05T04:17:41.517Z,100706.25
2019-05-05T04:20:19.727Z,100710.05
2019-05-05T04:22:50.174Z,100713.13
2019-05-05T04:25:20.699Z,100712.58
2019-05-05T04:27:51.177Z,100708.63
2019-05-05T04:30:23.699Z,100709.77
2019-05-05T04:32:54.698Z,100714.50
2019-05-05T04:35:25.269Z,100710.97
2019-05-05T04:37:55.708Z,100718.46
2019-05-05T04:40:26.194Z,100725.88
2019-05-05T04:42:56.635Z,100720.23
2019-05-05T04:45:27.102Z,100718.43
2019-05-05T04:47:59.125Z,100726.98
2019-05-05T04:50:34.521Z,100717.84
2019-05-05T04:53:25.764Z,100721.84
2019-05-05T04:55:56.253Z,100715.98
2019-05-05T04:58:26.667Z,100723.42
2019-05-05T05:00:57.167Z,100725.56
2019-05-05T05:03:38.248Z,100720.02
2019-05-05T05:06:10.303Z,100724.18
2019-05-05T05:08:40.712Z,100716.81
2019-05-05T05:11:11.185Z,100726.05
2019-05-05T05:13:41.588Z,100727.00
2019-05-05T05:16:13.868Z,100727.59
2019-05-05T05:18:44.722Z,100727.61
2019-05-05T05:21:15.238Z,100724.83
2019-05-05T05:23:45.653Z,100726.97
2019-05-05T05:26:16.146Z,100735.91
2019-05-05T05:28:46.570Z,100736.48
2019-05-05T05:31:17.040Z,100743.45
2019-05-05T05:33:47.386Z,100744.57
2019-05-05T05:36:17.862Z,100750.95
2019-05-05T05:38:49.838Z,100749.30
2019-05-05T05:41:38.057Z,100750.03
2019-05-05T05:44:22.042Z,100744.63
2019-05-05T05:46:56.775Z,100748.38
2019-05-05T05:49:34.743Z,100752.41
2019-05-05T05:52:13.372Z,100746.69
2019-05-05T05:54:37.233Z,100746.84
2019-05-05T05:57:07.681Z,100740.11
2019-05-05T05:59:38.106Z,100727.48
2019-05-05T06:02:12.423Z,100729.95
2019-05-05T06:04:40.690Z,100735.34
2019-05-05T06:07:11.171Z,100735.87
2019-05-05T06:09:43.587Z,100737.63
2019-05-05T06:12:14.226Z,100736.62
2019-05-05T06:14:44.867Z,100739.23
2019-05-05T06:17:15.478Z,100739.33
2019-05-05T06:19:45.908Z,100742.73
2019-05-05T06:22:28.205Z,100738.84
2019-05-05T06:24:48.499Z,100732.08
2019-05-05T06:27:18.981Z,100727.23
2019-05-05T06:29:49.405Z,100721.86
2019-05-05T06:32:19.904Z,100725.81
2019-05-05T06:34:50.318Z,100728.31
2019-05-05T06:37:20.789Z,100716.98
2019-05-05T06:39:54.435Z,100723.57
2019-05-05T06:42:38.614Z,100720.47
2019-05-05T06:45:10.720Z,100718.31
2019-05-05T06:47:42.099Z,100717.25
2019-05-05T06:50:13.965Z,100717.25
2019-05-05T06:52:47.123Z,100714.48
2019-05-05T06:55:16.663Z,100725.80
2019-05-05T06:57:47.120Z,100714.16
2019-05-05T07:00:17.659Z,100711.09
2019-05-05T07:02:48.152Z,100722.52
2019-05-05T07:05:18.583Z,100724.39
2019-05-05T07:07:49.044Z,100714.70
2019-05-05T07:10:19.435Z,100736.42
2019-05-05T07:12:49.909Z,100717.42
2019-05-05T07:15:20.341Z,100729.32
2019-05-05T07:17:50.971Z,100727.84
2019-05-05T07:20:21.376Z,100720.19
2019-05-05T07:23:01.549Z,100725.79
2019-05-05T07:25:24.326Z,100727.50
2019-05-05T07:27:54.825Z,100716.18
2019-05-05T07:30:25.191Z,100725.96
2019-05-05T07:32:55.664Z,100717.98
2019-05-05T07:35:55.351Z,100717.89
2019-05-05T07:38:15.752Z,100707.11
2019-05-05T07:40:46.174Z,100717.70
2019-05-05T07:43:16.607Z,100717.59
2019-05-05T07:45:47.055Z,100723.59
2019-05-05T07:48:17.607Z,100709.89
2019-05-05T07:51:01.227Z,100721.14
2019-05-05T07:53:20.129Z,100719.70
2019-05-05T07:55:50.572Z,100712.42
2019-05-05T07:58:21.057Z,100709.52
2019-05-05T08:00:51.483Z,100723.91
2019-05-05T08:03:23.643Z,100716.95
2019-05-05T08:05:54.565Z,100710.97
2019-05-05T08:08:24.994Z,100717.45
2019-05-05T08:10:55.408Z,100718.74
2019-05-05T08:13:25.885Z,100713.27
2019-05-05T08:16:00.115Z,100704.00
2019-05-05T08:18:35.218Z,100702.04
2019-05-05T08:21:07.216Z,100704.62
2019-05-05T08:23:44.554Z,100703.67
2019-05-05T08:26:18.671Z,100703.97
2019-05-05T08:28:59.856Z,100709.95
2019-05-05T08:31:46.936Z,100699.69
2019-05-05T08:34:17.316Z,100712.30
2019-05-05T08:36:47.766Z,100690.05
2019-05-05T08:39:21.357Z,100693.91
2019-05-05T08:41:50.370Z,100694.87
2019-05-05T08:44:20.854Z,100685.45
2019-05-05T08:46:51.275Z,100685.22
2019-05-05T08:49:21.753Z,100677.47
2019-05-05T08:51:52.219Z,100686.51
2019-05-05T08:54:23.580Z,100685.23
2019-05-05T08:56:54.929Z,100699.32
2019-05-05T08:59:25.522Z,100676.95
2019-05-05T09:01:55.955Z,100677.91
2019-05-05T09:04:26.424Z,100676.33
2019-05-05T09:06:56.858Z,100667.13
2019-05-05T09:09:27.370Z,100662.83
2019-05-05T09:11:57.814Z,100664.44
2019-05-05T09:14:28.281Z,100677.73
2019-05-05T09:16:58.730Z,100662.89
2019-05-05T09:19:30.156Z,100652.53
2019-05-05T09:22:00.579Z,100661.09
2019-05-05T09:24:35.292Z,100651.55
2019-05-05T09:27:07.462Z,100653.25
2019-05-05T09:29:45.228Z,100646.41
2019-05-05T09:32:15.655Z,100631.11
2019-05-05T09:34:46.118Z,100631.23
2019-05-05T09:37:16.564Z,100632.48
2019-05-05T09:39:47.040Z,100626.91
2019-05-05T09:42:17.549Z,100622.95
2019-05-05T09:44:48.041Z,100630.63
2019-05-05T09:47:18.466Z,100633.80
2019-05-05T09:49:48.831Z,100635.05
2019-05-05T09:52:19.259Z,100626.56
2019-05-05T09:54:49.754Z,100631.19
2019-05-05T09:57:20.156Z,100631.79
2019-05-05T09:59:50.627Z,100624.58
2019-05-05T10:02:21.038Z,100617.42
2019-05-05T10:04:51.519Z,100621.30
2019-05-05T10:07:24.075Z,100633.97
2019-05-05T10:09:54.362Z,100625.45
2019-05-05T10:12:24.787Z,100628.14
2019-05-05T10:14:55.192Z,100618.22
2019-05-05T10:17:25.655Z,100629.01
2019-05-05T10:19:57.198Z,100619.89
2019-05-05T10:22:27.635Z,100610.67
2019-05-05T10:25:15.607Z,100613.74
2019-05-05T10:27:47.829Z,100611.38
2019-05-05T10:30:18.522Z,100604.98
2019-05-05T10:32:48.927Z,100619.71
2019-05-05T10:35:19.374Z,100614.24
2019-05-05T10:37:49.833Z,100607.55
2019-05-05T10:40:21.865Z,100602.25
2019-05-05T10:42:53.891Z,100590.26
2019-05-05T10:45:24.765Z,100594.41
2019-05-05T10:47:55.527Z,100602.25
2019-05-05T10:50:26.092Z,100600.98
2019-05-05T10:52:56.494Z,100597.97
2019-05-05T10:55:26.941Z,100590.33
2019-05-05T10:57:57.434Z,100589.56
2019-05-05T11:00:48.010Z,100575.41
2019-05-05T11:03:18.458Z,100586.72
2019-05-05T11:05:50.331Z,100576.28
2019-05-05T11:08:21.215Z,100568.01
2019-05-05T11:10:51.991Z,100568.78
2019-05-05T11:13:23.980Z,100571.84
2019-05-05T11:15:54.810Z,100567.38
2019-05-05T11:18:25.355Z,100565.70
2019-05-05T11:20:56.796Z,100568.39
2019-05-05T11:23:27.345Z,100562.92
2019-05-05T11:25:57.924Z,100568.46
2019-05-05T11:28:28.424Z,100566.21
2019-05-05T11:30:58.885Z,100560.34
2019-05-05T11:33:34.439Z,100571.44
2019-05-05T11:36:07.023Z,100568.09
2019-05-05T11:38:37.466Z,100556.29
2019-05-05T11:41:07.955Z,100566.68
2019-05-05T11:43:38.397Z,100557.80
2019-05-05T11:46:10.423Z,100556.59
2019-05-05T11:48:43.836Z,100554.97
2019-05-05T11:51:15.093Z,100559.22
2019-05-05T11:53:45.592Z,100550.35
2019-05-05T11:56:16.020Z,100554.25
2019-05-05T11:58:46.430Z,100544.70
2019-05-05T12:01:17.297Z,100546.08
2019-05-05T12:03:47.803Z,100539.55
2019-05-05T12:06:18.242Z,100533.83
2019-05-05T12:08:48.645Z,100538.33
2019-05-05T12:11:19.097Z,100522.90
2019-05-05T12:13:49.471Z,100533.31
2019-05-05T12:16:34.519Z,100527.90
2019-05-05T12:19:06.246Z,100528.80
2019-05-05T12:21:37.651Z,100522.13
2019-05-05T12:24:09.630Z,100524.05
2019-05-05T12:26:54.267Z,100534.09
2019-05-05T12:29:24.959Z,100531.57
2019-05-05T12:31:55.456Z,100534.72
2019-05-05T12:34:25.926Z,100533.24
2019-05-05T12:36:56.319Z,100534.34
2019-05-05T12:39:26.744Z,100523.85
2019-05-05T12:41:57.253Z,100525.83
2019-05-05T12:44:29.262Z,100526.61
2019-05-05T12:47:17.300Z,100524.05
2019-05-05T12:49:47.795Z,100510.44
2019-05-05T12:52:18.307Z,100518.19
2019-05-05T12:54:48.732Z,100507.47
2019-05-05T12:57:19.200Z,100514.34
2019-05-05T12:59:49.634Z,100507.50
2019-05-05T13:02:20.132Z,100511.84
2019-05-05T13:04:50.635Z,100527.88
2019-05-05T13:07:21.108Z,100510.09
2019-05-05T13:09:51.550Z,100511.86
2019-05-05T13:12:23.864Z,100517.88
2019-05-05T13:14:54.524Z,100508.55
2019-05-05T13:17:25.068Z,100504.11
2019-05-05T13:19:59.590Z,100501.83
2019-05-05T13:22:44.741Z,100503.41
2019-05-05T13:25:16.806Z,100505.13
2019-05-05T13:27:47.306Z,100486.87
2019-05-05T13:30:17.813Z,100498.09
2019-05-05T13:32:48.313Z,100494.23
2019-05-05T13:35:18.781Z,100498.51
2019-05-05T13:37:49.309Z,100495.47
2019-05-05T13:40:19.901Z,100490.70
2019-05-05T13:42:50.536Z,100499.64
2019-05-05T13:45:25.366Z,100490.48
2019-05-05T13:47:55.957Z,100496.94
2019-05-05T13:50:34.206Z,100498.41
2019-05-05T13:53:04.739Z,100509.34
2019-05-05T13:55:35.308Z,100495.45
2019-05-05T13:58:08.575Z,100495.56
2019-05-05T14:00:38.048Z,100498.00
2019-05-05T14:03:08.582Z,100497.46
2019-05-05T14:05:39.041Z,100501.12
2019-05-05T14:08:09.540Z,100482.17
2019-05-05T14:10:40.121Z,100491.23
2019-05-05T14:13:10.699Z,100497.55
2019-05-05T14:15:41.173Z,100498.07
2019-05-05T14:18:11.685Z,100498.50
2019-05-05T14:20:43.579Z,100490.93
2019-05-05T14:23:14.875Z,100495.67
2019-05-05T14:25:45.464Z,100494.45
2019-05-05T14:28:18.216Z,100495.26
2019-05-05T14:30:54.137Z,100494.14
2019-05-05T14:33:29.062Z,100500.63
2019-05-05T14:36:01.108Z,100489.41
2019-05-05T14:38:45.241Z,100504.96
2019-05-05T14:41:15.830Z,100494.70
2019-05-05T14:43:46.372Z,100493.55
2019-05-05T14:46:16.806Z,100486.59
2019-05-05T14:48:47.310Z,100492.08
2019-05-05T14:51:17.792Z,100497.58
2019-05-05T14:53:48.324Z,100499.38
2019-05-05T14:56:18.738Z,100495.52
2019-05-05T14:58:49.254Z,100501.62
2019-05-05T15:01:19.757Z,100489.73
2019-05-05T15:03:50.353Z,100509.33
2019-05-05T15:06:25.014Z,100497.20
2019-05-05T15:08:59.834Z,100490.61
2019-05-05T15:11:33.798Z,100496.45
2019-05-05T15:14:06.863Z,100497.33
2019-05-05T15:16:36.716Z,100499.39
2019-05-05T15:19:07.268Z,100494.27
2019-05-05T15:21:37.813Z,100488.74
2019-05-05T15:24:09.432Z,100495.17
2019-05-05T15:26:51.232Z,100493.88
2019-05-05T15:29:12.107Z,100487.87
2019-05-05T15:31:43.535Z,100486.17
2019-05-05T15:34:14.076Z,100503.20
2019-05-05T15:36:44.528Z,100496.79
2019-05-05T15:39:15.089Z,100504.98
2019-05-05T15:41:45.524Z,100507.53
2019-05-05T15:44:16.134Z,100508.27
2019-05-05T15:46:48.607Z,100494.56
2019-05-05T15:49:19.013Z,100494.86
2019-05-05T15:51:49.595Z,100496.55
2019-05-05T15:54:20.162Z,100494.08
2019-05-05T15:57:03.004Z,100502.67
2019-05-05T15:59:23.915Z,100496.39
2019-05-05T16:01:54.992Z,100499.20
2019-05-05T16:04:25.747Z,100487.63
2019-05-05T16:06:56.182Z,100491.86
2019-05-05T16:09:26.624Z,100494.72
2019-05-05T16:11:57.044Z,100492.83
2019-05-05T16:14:27.473Z,100494.86
2019-05-05T16:16:59.466Z,100488.52
2019-05-05T16:19:31.496Z,100491.59
2019-05-05T16:22:06.337Z,100488.81
2019-05-05T16:24:39.328Z,100480.61
2019-05-05T16:27:21.122Z,100480.52
2019-05-05T16:29:44.655Z,100484.67
2019-05-05T16:32:21.706Z,100476.15
2019-05-05T16:34:49.628Z,100477.31
2019-05-05T16:37:20.047Z,100469.58
2019-05-05T16:39:50.454Z,100471.24
2019-05-05T16:42:20.870Z,100473.63
2019-05-05T16:44:51.351Z,100476.12
2019-05-05T16:47:21.768Z,100477.84
2019-05-05T16:49:53.810Z,100482.28
2019-05-05T16:52:26.840Z,100480.39
2019-05-05T16:55:07.871Z,100480.80
2019-05-05T16:57:39.966Z,100484.19
2019-05-05T17:00:10.463Z,100481.19
2019-05-05T17:02:40.939Z,100483.20
2019-05-05T17:05:13.636Z,100479.62
2019-05-05T17:07:43.672Z,100477.14
2019-05-05T17:10:14.372Z,100482.48
2019-05-05T17:12:46.834Z,100476.67
2019-05-05T17:15:35.419Z,100484.73
2019-05-05T17:18:32.809Z,100490.27
2019-05-05T17:21:00.868Z,100484.53
2019-05-05T17:23:31.413Z,100483.19
2019-05-05T17:26:10.450Z,100489.84
2019-05-05T17:28:40.967Z,100489.31
2019-05-05T17:31:11.484Z,100489.06
2019-05-05T17:33:44.060Z,100485.20
2019-05-05T17:36:14.100Z,100490.19
2019-05-05T17:38:44.538Z,100485.55
2019-05-05T17:41:19.363Z,100491.29
2019-05-05T17:43:51.393Z,100480.58
2019-05-05T17:46:38.272Z,100481.40
2019-05-05T17:49:14.142Z,100478.95
2019-05-05T17:51:46.277Z,100482.58
2019-05-05T17:54:18.359Z,100480.08
2019-05-05T17:56:48.857Z,100476.78
2019-05-05T17:59:19.269Z,100479.56
2019-05-05T18:01:49.767Z,100480.66
2019-05-05T18:04:20.216Z,100479.83
2019-05-05T18:06:54.964Z,100482.05
2019-05-05T18:09:43.842Z,100483.44
2019-05-05T18:12:15.990Z,100482.38
2019-05-05T18:14:47.999Z,100475.73
2019-05-05T18:17:18.493Z,100472.94
2019-05-05T18:19:48.918Z,100477.14
2019-05-05T18:22:19.377Z,100476.59
2019-05-05T18:24:49.821Z,100474.37
2019-05-05T18:27:21.261Z,100483.20
2019-05-05T18:29:51.840Z,100475.47
2019-05-05T18:32:23.557Z,100478.25
2019-05-05T18:34:54.640Z,100477.70
2019-05-05T18:37:25.115Z,100478.53
2019-05-05T18:39:55.612Z,100477.70
2019-05-05T18:42:25.931Z,100474.41
2019-05-05T18:44:58.024Z,100487.92
2019-05-05T18:47:28.478Z,100482.67
2019-05-05T18:49:58.945Z,100484.06
2019-05-05T18:52:29.385Z,100484.62
2019-05-05T18:54:59.885Z,100486.80
2019-05-05T18:57:30.343Z,100490.13
2019-05-05T19:00:00.854Z,100497.03
2019-05-05T19:02:37.064Z,100497.30
2019-05-05T19:05:25.773Z,100498.13
2019-05-05T19:08:06.718Z,100504.19
2019-05-05T19:10:37.183Z,100510.80
2019-05-05T19:13:07.677Z,100513.27
2019-05-05T19:15:38.165Z,100511.91
2019-05-05T19:18:08.587Z,100514.66
2019-05-05T19:20:44.479Z,100509.12
2019-05-05T19:23:16.553Z,100515.16
2019-05-05T19:25:47.114Z,100515.69
2019-05-05T19:28:18.585Z,100523.97
2019-05-05T19:30:49.185Z,100520.63
2019-05-05T19:33:19.665Z,100524.50
2019-05-05T19:35:50.151Z,100522.28
2019-05-05T19:38:20.572Z,100525.03
2019-05-05T19:40:55.884Z,100528.64
2019-05-05T19:43:24.746Z,100519.19
2019-05-05T19:45:58.092Z,100522.78
2019-05-05T19:48:28.723Z,100529.94
2019-05-05T19:51:00.768Z,100520.81
2019-05-05T19:53:31.223Z,100520.42
2019-05-05T19:56:03.931Z,100516.30
2019-05-05T19:58:34.129Z,100513.84
2019-05-05T20:01:06.161Z,100514.89
2019-05-05T20:03:36.845Z,100512.94
2019-05-05T20:06:07.492Z,100517.97
2019-05-05T20:08:41.380Z,100513.80
2019-05-05T20:11:10.250Z,100518.16
2019-05-05T20:13:40.713Z,100517.61
2019-05-05T20:16:15.785Z,100527.48
2019-05-05T20:18:46.246Z,100526.88
2019-05-05T20:21:16.711Z,100526.38
2019-05-05T20:23:47.154Z,100529.83
2019-05-05T20:26:17.554Z,100531.50
2019-05-05T20:28:48.834Z,100531.73
2019-05-05T20:31:19.404Z,100536.42
2019-05-05T20:33:57.235Z,100538.37
2019-05-05T20:36:32.031Z,100528.19
2019-05-05T20:39:04.315Z,100536.73
2019-05-05T20:41:34.861Z,100532.61
2019-05-05T20:44:05.916Z,100536.97
2019-05-05T20:46:36.526Z,100532.58
2019-05-05T20:49:07.000Z,100532.14
2019-05-05T20:51:37.457Z,100530.67
2019-05-05T20:54:07.885Z,100529.28
2019-05-05T20:56:38.503Z,100522.52
2019-05-05T20:59:08.957Z,100521.15
2019-05-05T21:01:43.903Z,100520.83
2019-05-05T21:04:16.217Z,100524.69
2019-05-05T21:06:46.706Z,100522.47
2019-05-05T21:09:17.134Z,100518.59
2019-05-05T21:11:47.539Z,100515.59
2019-05-05T21:14:31.142Z,100515.81
2019-05-05T21:16:50.503Z,100507.86
2019-05-05T21:19:20.915Z,100511.95
2019-05-05T21:21:54.431Z,100515.69
2019-05-05T21:24:25.063Z,100510.16
2019-05-05T21:26:57.156Z,100504.63
2019-05-05T21:29:39.639Z,100505.25
2019-05-05T21:32:00.675Z,100501.56
2019-05-05T21:34:31.135Z,100496.34
2019-05-05T21:37:01.651Z,100498.00
2019-05-05T21:39:32.049Z,100492.22
2019-05-05T21:42:04.678Z,100497.19
2019-05-05T21:44:34.750Z,100493.66
2019-05-05T21:47:05.264Z,100491.44
2019-05-05T21:49:35.617Z,100491.73
2019-05-05T21:52:24.032Z,100486.76
2019-05-05T21:54:56.147Z,100479.30
2019-05-05T21:57:36.994Z,100478.48
2019-05-05T22:00:09.922Z,100477.70
2019-05-05T22:02:40.397Z,100478.41
2019-05-05T22:05:10.830Z,100479.85
2019-05-05T22:07:41.410Z,100471.34
2019-05-05T22:10:13.571Z,100472.72
2019-05-05T22:12:44.753Z,100471.64
2019-05-05T22:15:15.238Z,100474.95
2019-05-05T22:17:45.747Z,100468.59
2019-05-05T22:20:17.745Z,100469.12
2019-05-05T22:22:48.598Z,100467.28
2019-05-05T22:25:19.065Z,100456.34
2019-05-05T22:27:49.501Z,100458.63
2019-05-05T22:30:20.771Z,100460.34
2019-05-05T22:32:51.359Z,100451.76
2019-05-05T22:35:23.847Z,100451.67
2019-05-05T22:37:54.065Z,100445.39
2019-05-05T22:40:25.879Z,100444.37
2019-05-05T22:42:56.304Z,100444.27
2019-05-05T22:45:26.851Z,100433.91
2019-05-05T22:47:57.379Z,100430.36
2019-05-05T22:50:27.817Z,100424.55
2019-05-05T22:52:58.261Z,100428.07
2019-05-05T22:55:28.592Z,100433.60
2019-05-05T22:57:59.061Z,100423.18
2019-05-05T23:00:29.949Z,100438.95
2019-05-05T23:03:04.321Z,100431.31
2019-05-05T23:05:44.458Z,100419.23
2019-05-05T23:08:18.227Z,100426.30
2019-05-05T23:10:47.058Z,100422.94
2019-05-05T23:13:17.554Z,100420.76
2019-05-05T23:15:55.422Z,100414.92
2019-05-05T23:18:27.539Z,100423.72
2019-05-05T23:21:02.513Z,100418.47
2019-05-05T23:23:34.531Z,100414.50
2019-05-05T23:26:06.634Z,100412.38
2019-05-05T23:28:37.070Z,100407.13
2019-05-05T23:31:08.460Z,100412.06
2019-05-05T23:33:39.006Z,100406.33
2019-05-05T23:36:09.414Z,100403.97
2019-05-05T23:38:39.967Z,100398.31
2019-05-05T23:41:10.401Z,100401.48
2019-05-05T23:43:40.972Z,100400.58
2019-05-05T23:46:11.393Z,100399.67
2019-05-05T23:48:41.975Z,100395.56
2019-05-05T23:51:13.946Z,100400.48
2019-05-05T23:53:44.796Z,100392.20
2019-05-05T23:56:15.213Z,100392.92
2019-05-05T23:58:45.683Z,100390.19
